Time;durP1;ratioP1;P1;durP2;ratioP2;P2;SDS_P1;SDS_P2;PMS_P1;PMS_P2;Temp;Humidity;BMP_temperature;BMP_pressure;BME280_temperature;BME280_humidity;BME280_pressure;Samples;Min_cycle;Max_cycle;Signal;HPM_P1;HPM_P2
2023/09/16 05:04:21;;;;;;;;;;;;;;;22.06;59.91;96580.66;4283892;27;10063;-74
2023/09/16 05:06:24;;;;;;;;;;;;;;;22.33;59.30;96576.84;4267173;27;5515;-74
2023/09/16 05:08:27;;;;;;;;;;;;;;;22.55;58.73;96571.94;4248464;27;5513;-73
2023/09/16 05:10:30;;;;;;;;;;;;;;;22.73;58.43;96564.31;4267081;27;5610;-74
2023/09/16 05:12:32;;;;;;;;;;;;;;;22.87;57.88;96559.97;4261706;27;5491;-75
2023/09/16 05:14:35;;;;;;;;;;;;;;;22.99;57.92;96559.63;4266677;27;5573;-75
2023/09/16 05:16:38;;;;;;;;;;;;;;;23.08;56.96;96564.19;4266960;27;5599;-75
2023/09/16 05:18:41;;;;;;;;;;;;;;;23.16;56.69;96558.22;4267014;27;5502;-74
2023/09/16 05:20:45;;;;;;;;;;;;;;;23.21;56.74;96563.56;4250207;27;5616;-75
2023/09/16 05:22:48;;;;;;;;;;;;;;;23.29;56.15;96569.47;4262499;27;5626;-75
2023/09/16 05:24:50;;;;;;;;;;;;;;;23.34;56.23;96564.84;4266040;27;5514;-75
2023/09/16 05:26:56;;;;;;;;;;;;;;;23.37;55.66;96566.19;4264940;27;5727;-75
2023/09/16 05:28:59;;;;;;;;;;;;;;;23.41;55.82;96564.50;4266914;27;7746;-75
2023/09/16 05:31:03;;;;;;;;;;;;;;;23.43;55.58;96570.44;4264141;27;5497;-75
2023/09/16 05:33:05;;;;;;;;;;;;;;;23.46;55.40;96575.28;4262273;27;5932;-74
2023/09/16 05:35:08;;;;;;;;;;;;;;;23.49;54.94;96585.50;4266652;27;5518;-74
2023/09/16 05:37:13;;;;;;;;;;;;;;;23.51;54.86;96586.03;4266493;27;5605;-75
2023/09/16 05:39:16;;;;;;;;;;;;;;;23.53;54.63;96586.56;4266179;27;5503;-74
2023/09/16 05:41:17;;;;;;;;;;;;;;;23.55;54.47;96578.97;4266605;27;5610;-74
2023/09/16 05:43:20;;;;;;;;;;;;;;;23.56;54.20;96591.41;4266304;27;5499;-74
2023/09/16 05:45:23;;;;;;;;;;;;;;;23.58;54.21;96597.34;4250618;27;5513;-74
2023/09/16 05:47:29;;;;;;;;;;;;;;;23.60;53.88;96587.09;4266414;27;5513;-75
2023/09/16 05:49:32;;;;;;;;;;;;;;;23.61;53.70;96586.00;4266491;27;5075;-75
2023/09/16 05:51:34;;;;;;;;;;;;;;;23.63;53.56;96593.81;4266452;27;5642;-74
2023/09/16 05:53:39;;;;;;;;;;;;;;;23.64;54.07;96588.13;4266032;27;5612;-73
2023/09/16 05:55:42;;;;;;;;;;;;;;;23.65;53.55;96589.72;4266509;27;5725;-74
2023/09/16 05:57:45;;;;;;;;;;;;;;;23.66;53.78;96585.94;4266318;27;5742;-74
2023/09/16 05:59:48;;;;;;;;;;;;;;;23.68;53.28;96577.59;4266228;27;5573;-74
2023/09/16 06:01:51;;;;;;;;;;;;;;;23.68;53.71;96588.38;4247787;27;5732;-75
2023/09/16 06:03:53;;;;;;;;;;;;;;;23.68;53.27;96575.69;4262450;27;5576;-75
2023/09/16 06:05:58;;;;;;;;;;;;;;;23.68;53.28;96583.00;4248655;27;6480;-75
2023/09/16 06:08:01;;;;;;;;;;;;;;;23.70;53.18;96580.81;4244315;27;5505;-75
2023/09/16 06:10:08;;;;;;;;;;;;;;;23.70;52.85;96589.72;4254444;27;5589;-73
2023/09/16 06:12:11;;;;;;;;;;;;;;;23.72;53.11;96589.44;4254471;27;5514;-75
2023/09/16 06:14:13;;;;;;;;;;;;;;;23.74;52.55;96592.63;4254951;27;5115;-74
2023/09/16 06:16:16;;;;;;;;;;;;;;;23.74;52.95;96596.16;4254457;27;5617;-74
2023/09/16 06:18:19;;;;;;;;;;;;;;;23.75;52.41;96605.03;4254462;27;5529;-75
2023/09/16 06:20:22;;;;;;;;;;;;;;;23.77;52.90;96597.47;4254814;27;5486;-75
2023/09/16 06:22:25;;;;;;;;;;;;;;;23.77;52.34;96595.56;4254847;27;5581;-74
2023/09/16 06:24:28;;;;;;;;;;;;;;;23.78;52.31;96601.78;4253835;27;5573;-75
2023/09/16 06:26:32;;;;;;;;;;;;;;;23.77;52.30;96602.88;4252026;27;5506;-75
2023/09/16 06:28:37;;;;;;;;;;;;;;;23.80;52.25;96603.13;4258730;27;5574;-75
2023/09/16 06:30:40;;;;;;;;;;;;;;;23.82;52.59;96605.53;4259438;27;5673;-75
2023/09/16 06:32:43;;;;;;;;;;;;;;;23.83;52.18;96601.75;4254231;27;5554;-75
2023/09/16 06:34:46;;;;;;;;;;;;;;;23.84;52.41;96614.16;4254320;27;5577;-74
2023/09/16 06:36:49;;;;;;;;;;;;;;;23.86;52.40;96620.06;4254243;27;5608;-75
2023/09/16 06:38:51;;;;;;;;;;;;;;;23.86;52.33;96625.47;4240221;27;5505;-75
2023/09/16 06:40:54;;;;;;;;;;;;;;;23.87;52.32;96631.69;4248765;27;6246;-75
2023/09/16 06:42:59;;;;;;;;;;;;;;;23.87;52.27;96640.59;4253795;27;5494;-74
2023/09/16 06:45:02;;;;;;;;;;;;;;;23.87;52.55;96637.88;4247886;27;5498;-74
2023/09/16 06:47:05;;;;;;;;;;;;;;;23.88;52.11;96641.38;4252873;27;5490;-75
2023/09/16 06:49:07;;;;;;;;;;;;;;;23.89;52.13;96637.59;4253900;27;5506;-75
2023/09/16 06:51:10;;;;;;;;;;;;;;;23.88;52.37;96634.09;4252318;27;5490;-74
2023/09/16 06:53:14;;;;;;;;;;;;;;;23.88;52.39;96644.09;4253898;27;5510;-74
2023/09/16 06:55:16;;;;;;;;;;;;;;;23.88;52.29;96657.59;4252323;27;5570;-75
2023/09/16 06:57:20;;;;;;;;;;;;;;;23.89;52.63;96653.78;4253304;27;5570;-75
2023/09/16 06:59:24;;;;;;;;;;;;;;;23.90;52.19;96656.25;4249166;27;5573;-75
2023/09/16 07:01:27;;;;;;;;;;;;;;;23.89;52.25;96662.69;4238867;27;5712;-75
2023/09/16 07:03:30;;;;;;;;;;;;;;;23.87;52.59;96662.19;4248609;27;5573;-75
2023/09/16 07:05:33;;;;;;;;;;;;;;;23.88;52.44;96662.97;4244257;27;5111;-75
2023/09/16 07:07:36;;;;;;;;;;;;;;;23.90;52.90;96658.94;4244854;27;5708;-75
2023/09/16 07:09:38;;;;;;;;;;;;;;;23.92;53.02;96664.06;4243403;27;5629;-75
2023/09/16 07:11:40;;;;;;;;;;;;;;;23.92;52.76;96666.75;4249177;27;5675;-75
2023/09/16 07:13:43;;;;;;;;;;;;;;;23.88;53.04;96668.38;4248023;27;5697;-75
2023/09/16 07:15:54;;;;;;;;;;;;;;;23.88;53.43;96671.09;4244024;27;5581;-75
2023/09/16 07:17:57;;;;;;;;;;;;;;;23.88;53.21;96677.28;4246814;27;5581;-75
2023/09/16 07:20:00;;;;;;;;;;;;;;;23.89;53.09;96675.38;4252179;27;5581;-74
2023/09/16 07:22:03;;;;;;;;;;;;;;;23.89;53.27;96667.28;4242688;27;5613;-75
2023/09/16 07:24:07;;;;;;;;;;;;;;;23.89;53.16;96664.59;4240664;27;5894;-74
2023/09/16 07:26:10;;;;;;;;;;;;;;;23.91;53.43;96674.03;4242825;27;5621;-74
2023/09/16 07:28:13;;;;;;;;;;;;;;;23.94;53.10;96678.06;4228923;28;7396;-75
2023/09/16 07:30:16;;;;;;;;;;;;;;;23.95;53.18;96680.47;4240606;27;5494;-75
2023/09/16 07:32:20;;;;;;;;;;;;;;;23.98;53.13;96668.31;4250790;27;5603;-75
2023/09/16 07:34:23;;;;;;;;;;;;;;;23.99;53.45;96662.63;4248030;27;5944;-75
2023/09/16 07:36:25;;;;;;;;;;;;;;;24.00;53.35;96669.63;4242777;27;5676;-76
2023/09/16 07:38:28;;;;;;;;;;;;;;;24.02;53.03;96675.59;4239833;27;5918;-75
2023/09/16 07:40:32;;;;;;;;;;;;;;;24.05;53.01;96685.81;4244445;27;7658;-75
2023/09/16 07:42:35;;;;;;;;;;;;;;;24.06;53.14;96692.81;4246527;27;5674;-75
2023/09/16 07:44:38;;;;;;;;;;;;;;;24.08;53.21;96695.25;4244985;27;5796;-75
2023/09/16 07:46:41;;;;;;;;;;;;;;;24.08;53.03;96690.66;4247461;27;5498;-75
2023/09/16 07:48:45;;;;;;;;;;;;;;;24.09;53.17;96692.25;4244433;27;5615;-74
2023/09/16 07:50:49;;;;;;;;;;;;;;;24.12;52.80;96704.38;4245988;27;5585;-74
2023/09/16 07:52:52;;;;;;;;;;;;;;;24.15;53.06;96703.84;4248722;27;5751;-75
2023/09/16 07:54:56;;;;;;;;;;;;;;;24.17;52.60;96698.16;4240509;27;5597;-75
2023/09/16 07:56:59;;;;;;;;;;;;;;;24.18;52.89;96694.34;4249174;27;5604;-75
2023/09/16 07:59:02;;;;;;;;;;;;;;;24.18;52.39;96707.88;4246466;27;5491;-74
2023/09/16 08:01:05;;;;;;;;;;;;;;;24.19;52.83;96704.06;4255033;27;5703;-75
2023/09/16 08:03:08;;;;;;;;;;;;;;;24.18;52.74;96705.97;4247651;27;5518;-76
2023/09/16 08:05:13;;;;;;;;;;;;;;;24.20;52.74;96697.56;4258790;27;5476;-75
2023/09/16 08:07:15;;;;;;;;;;;;;;;24.20;52.76;96698.38;4251789;27;6998;-75
2023/09/16 08:09:18;;;;;;;;;;;;;;;24.22;52.94;96700.78;4249928;27;5467;-76
2023/09/16 08:11:21;;;;;;;;;;;;;;;24.23;52.75;96718.63;4258736;27;5784;-75
2023/09/16 08:13:23;;;;;;;;;;;;;;;24.22;52.58;96717.81;4246300;27;5576;-75
2023/09/16 08:15:26;;;;;;;;;;;;;;;24.22;52.96;96722.41;4244143;27;6314;-74
2023/09/16 08:17:29;;;;;;;;;;;;;;;24.24;52.72;96720.25;4246516;27;5582;-74
2023/09/16 08:19:32;;;;;;;;;;;;;;;24.23;53.27;96719.41;4242676;27;5482;-74
2023/09/16 08:21:36;;;;;;;;;;;;;;;24.25;52.97;96727.25;4246319;27;5709;-75
2023/09/16 08:23:41;;;;;;;;;;;;;;;24.25;53.16;96719.97;4241780;27;5581;-73
2023/09/16 08:25:45;;;;;;;;;;;;;;;24.24;53.39;96723.75;4244391;27;5624;-75
2023/09/16 08:27:47;;;;;;;;;;;;;;;24.25;53.52;96732.66;4247984;27;5562;-75
2023/09/16 08:29:52;;;;;;;;;;;;;;;24.25;53.13;96738.88;4230365;28;5601;-75
2023/09/16 08:31:55;;;;;;;;;;;;;;;24.27;53.27;96735.88;4250550;27;5629;-75
2023/09/16 08:34:00;;;;;;;;;;;;;;;24.32;53.53;96744.78;4250366;27;5510;-75
2023/09/16 08:36:04;;;;;;;;;;;;;;;24.35;53.52;96746.94;4249232;27;5486;-75
2023/09/16 08:38:09;;;;;;;;;;;;;;;24.38;53.50;96746.38;4250282;27;5498;-75
2023/09/16 08:40:12;;;;;;;;;;;;;;;24.41;53.63;96741.47;4247999;27;5575;-76
2023/09/16 08:42:22;;;;;;;;;;;;;;;24.44;53.77;96735.50;4242655;27;5587;-75
2023/09/16 08:44:28;;;;;;;;;;;;;;;24.48;53.92;96736.56;4242281;27;5586;-75
2023/09/16 08:46:34;;;;;;;;;;;;;;;24.49;53.97;96730.06;4250923;27;5495;-76
2023/09/16 08:48:42;;;;;;;;;;;;;;;24.50;53.78;96735.19;4248995;27;5574;-75
2023/09/16 08:50:46;;;;;;;;;;;;;;;24.52;53.89;96734.91;4247916;27;5589;-75
2023/09/16 08:52:51;;;;;;;;;;;;;;;24.54;53.85;96727.31;4248450;27;6549;-75
2023/09/16 08:54:58;;;;;;;;;;;;;;;24.55;53.52;96720.81;4250788;27;5589;-74
2023/09/16 08:57:02;;;;;;;;;;;;;;;24.56;53.68;96727.81;4249461;27;5486;-68
2023/09/16 08:59:05;;;;;;;;;;;;;;;24.57;53.60;96729.44;4247690;27;5646;-68
2023/09/16 09:01:10;;;;;;;;;;;;;;;24.58;53.36;96725.69;4243386;27;5724;-62
2023/09/16 09:03:13;;;;;;;;;;;;;;;24.58;53.69;96728.38;4248348;27;5479;-73
2023/09/16 09:05:16;;;;;;;;;;;;;;;24.59;53.31;96730.78;4249274;27;5494;-68
2023/09/16 09:07:21;;;;;;;;;;;;;;;24.64;53.31;96729.94;4250048;27;5618;-68
2023/09/16 09:09:24;;;;;;;;;;;;;;;24.66;53.13;96733.16;4249157;27;5521;-71
2023/09/16 09:11:31;;;;;;;;;;;;;;;24.68;53.39;96726.34;4248123;27;5522;-66
2023/09/16 09:13:34;;;;;;;;;;;;;;;24.71;53.46;96727.72;4242346;27;5521;-69
2023/09/16 09:15:39;;;;;;;;;;;;;;;24.74;53.32;96731.72;4241810;27;5483;-66
2023/09/16 09:17:44;;;;;;;;;;;;;;;24.78;52.89;96724.66;4242127;27;5518;-65
2023/09/16 09:19:48;;;;;;;;;;;;;;;24.80;53.24;96725.16;4241291;27;5597;-73
2023/09/16 09:21:52;;;;;;;;;;;;;;;24.80;53.25;96730.56;4247500;27;5777;-66
2023/09/16 09:23:57;;;;;;;;;;;;;;;24.80;53.03;96735.97;4248843;27;5562;-62
2023/09/16 09:26:00;;;;;;;;;;;;;;;24.80;52.89;96741.38;4239926;27;5554;-62
2023/09/16 09:28:04;;;;;;;;;;;;;;;24.81;53.26;96746.53;4246451;27;5687;-74
2023/09/16 09:30:09;;;;;;;;;;;;;;;24.82;53.15;96753.56;4247469;27;5499;-74
2023/09/16 09:32:12;;;;;;;;;;;;;;;24.86;53.05;96768.09;4246871;27;5885;-65
2023/09/16 09:34:35;;;;;;;;;;;;;;;24.89;52.78;96767.53;4240553;27;7635;-68
2023/09/16 09:36:38;;;;;;;;;;;;;;;24.90;52.73;96768.34;4246140;27;5636;-68
2023/09/16 09:38:41;;;;;;;;;;;;;;;24.92;52.59;96774.28;4246941;27;5593;-67
2023/09/16 09:40:58;;;;;;;;;;;;;;;24.92;52.63;96774.28;4239199;27;5602;-66
2023/09/16 09:43:01;;;;;;;;;;;;;;;24.93;52.75;96779.41;4252993;27;5581;-66
2023/09/16 09:45:06;;;;;;;;;;;;;;;24.91;53.19;96773.44;4252963;27;5615;-67
2023/09/16 09:47:12;;;;;;;;;;;;;;;24.93;52.98;96776.69;4252759;27;5666;-66
2023/09/16 09:49:15;;;;;;;;;;;;;;;24.95;53.09;96769.09;4253248;27;5590;-67
2023/09/16 09:51:20;;;;;;;;;;;;;;;24.96;53.31;96767.19;4252852;27;5810;-67
2023/09/16 09:53:23;;;;;;;;;;;;;;;24.96;53.41;96765.31;4244153;27;5545;-66
2023/09/16 09:55:30;;;;;;;;;;;;;;;24.96;53.59;96762.59;4252649;27;5652;-67
2023/09/16 09:57:33;;;;;;;;;;;;;;;24.98;53.16;96762.31;4252988;27;5582;-66
2023/09/16 09:59:36;;;;;;;;;;;;;;;24.98;53.39;96768.53;4253047;27;5570;-66
2023/09/16 10:01:41;;;;;;;;;;;;;;;25.00;53.59;96779.06;4253011;27;5743;-66
2023/09/16 10:03:49;;;;;;;;;;;;;;;25.03;53.68;96777.69;4252724;27;5613;-66
2023/09/16 10:05:52;;;;;;;;;;;;;;;25.04;53.73;96776.63;4252828;27;5577;-66
2023/09/16 10:07:54;;;;;;;;;;;;;;;25.05;54.08;96784.47;4252835;27;6379;-66
2023/09/16 10:09:57;;;;;;;;;;;;;;;25.03;54.36;96783.09;4248189;27;5788;-65
2023/09/16 10:12:01;;;;;;;;;;;;;;;25.07;54.27;96789.56;4252852;27;5753;-66
2023/09/16 10:14:05;;;;;;;;;;;;;;;25.10;54.41;96794.41;4234045;28;5715;-66
2023/09/16 10:16:08;;;;;;;;;;;;;;;25.12;54.65;96798.44;4252524;27;5506;-66
2023/09/16 10:18:14;;;;;;;;;;;;;;;25.12;54.89;96794.91;4252704;27;5486;-66
2023/09/16 10:20:17;;;;;;;;;;;;;;;25.10;54.98;96803.31;4252489;27;5494;-66
2023/09/16 10:22:19;;;;;;;;;;;;;;;25.08;55.52;96793.91;4252055;27;5514;-66
2023/09/16 10:24:22;;;;;;;;;;;;;;;25.07;55.30;96792.28;4252274;27;6385;-64
2023/09/16 10:26:25;;;;;;;;;;;;;;;25.05;55.73;96784.47;4242530;27;5734;-64
2023/09/16 10:28:29;;;;;;;;;;;;;;;25.04;55.77;96787.44;4237152;27;5529;-64
2023/09/16 10:30:33;;;;;;;;;;;;;;;25.02;55.77;96790.41;4241653;27;5501;-64
2023/09/16 10:32:37;;;;;;;;;;;;;;;25.01;56.05;96783.41;4255625;27;5494;-66
2023/09/16 10:34:45;;;;;;;;;;;;;;;25.02;56.12;96792.31;4252315;27;5083;-66
2023/09/16 10:36:49;;;;;;;;;;;;;;;25.04;56.70;96792.88;4252180;27;5558;-66
2023/09/16 10:38:54;;;;;;;;;;;;;;;25.05;56.76;96789.06;4246641;27;5501;-66
2023/09/16 10:40:57;;;;;;;;;;;;;;;25.08;56.56;96788.47;4241055;27;5478;-66
2023/09/16 10:43:02;;;;;;;;;;;;;;;25.10;56.75;96780.88;4252292;27;5597;-65
2023/09/16 10:45:10;;;;;;;;;;;;;;;25.11;56.79;96772.47;4252479;27;5585;-67
2023/09/16 10:47:15;;;;;;;;;;;;;;;25.14;56.78;96774.63;4243696;27;5474;-66
2023/09/16 10:49:17;;;;;;;;;;;;;;;25.16;57.00;96774.34;4251806;27;5554;-65
2023/09/16 10:51:24;;;;;;;;;;;;;;;25.16;56.79;96777.03;4251879;27;5843;-65
2023/09/16 10:53:36;;;;;;;;;;;;;;;25.17;56.91;96765.94;4252085;27;5581;-66
2023/09/16 10:55:43;;;;;;;;;;;;;;;25.18;57.03;96774.84;4242471;27;5573;-65
2023/09/16 10:57:49;;;;;;;;;;;;;;;25.17;56.77;96770.53;4251887;27;5561;-66
2023/09/16 10:59:53;;;;;;;;;;;;;;;25.18;56.81;96766.75;4251856;27;5486;-66
2023/09/16 11:02:02;;;;;;;;;;;;;;;25.16;57.21;96763.53;4251744;27;5498;-66
2023/09/16 11:04:09;;;;;;;;;;;;;;;25.15;57.46;96762.72;4251675;27;5585;-66
2023/09/16 11:06:12;;;;;;;;;;;;;;;25.17;57.26;96765.13;4251668;27;5482;-65
2023/09/16 11:08:17;;;;;;;;;;;;;;;25.19;57.46;96757.53;4243361;27;5702;-66
2023/09/16 11:10:21;;;;;;;;;;;;;;;25.21;57.48;96739.09;4251646;27;5630;-65
2023/09/16 11:12:25;;;;;;;;;;;;;;;25.22;57.47;96740.72;4251468;27;5596;-66
2023/09/16 11:14:28;;;;;;;;;;;;;;;25.23;57.56;96745.03;4251726;27;5486;-66
2023/09/16 11:16:42;;;;;;;;;;;;;;;25.26;57.42;96758.00;4251443;27;5494;-66
2023/09/16 11:18:49;;;;;;;;;;;;;;;25.29;57.20;96752.00;4251766;27;5503;-66
2023/09/16 11:20:53;;;;;;;;;;;;;;;25.29;57.29;96754.72;4251897;27;5494;-66
2023/09/16 11:22:56;;;;;;;;;;;;;;;25.29;57.61;96746.59;4251539;27;5656;-66
2023/09/16 11:25:01;;;;;;;;;;;;;;;25.29;57.32;96726.84;4251172;27;6303;-67
2023/09/16 11:27:05;;;;;;;;;;;;;;;25.27;57.38;96737.97;4251319;27;5597;-66
2023/09/16 11:29:17;;;;;;;;;;;;;;;25.30;57.26;96744.69;4243939;27;5497;-68
2023/09/16 11:31:20;;;;;;;;;;;;;;;25.29;57.39;96743.88;4248601;27;5098;-72
2023/09/16 11:33:28;;;;;;;;;;;;;;;25.29;57.39;96752.00;4258746;27;6235;-66
2023/09/16 11:35:32;;;;;;;;;;;;;;;25.27;57.15;96737.97;4251535;27;5498;-67
2023/09/16 11:37:35;;;;;;;;;;;;;;;25.27;57.57;96745.28;4251193;27;5984;-67
2023/09/16 11:39:42;;;;;;;;;;;;;;;25.27;57.17;96743.38;4250929;27;5508;-67
2023/09/16 11:41:45;;;;;;;;;;;;;;;25.29;57.43;96741.19;4251239;27;5589;-66
2023/09/16 11:43:48;;;;;;;;;;;;;;;25.30;57.43;96736.59;4251122;27;5717;-66
2023/09/16 11:45:52;;;;;;;;;;;;;;;25.31;57.38;96743.59;4251120;27;5694;-68
2023/09/16 11:47:55;;;;;;;;;;;;;;;25.28;57.24;96750.41;4236923;27;5572;-69
2023/09/16 11:49:58;;;;;;;;;;;;;;;25.25;57.30;96740.94;4248889;27;5574;-76
2023/09/16 11:52:02;;;;;;;;;;;;;;;25.25;57.11;96746.34;4251391;27;5498;-76
2023/09/16 11:54:06;;;;;;;;;;;;;;;25.23;57.38;96739.63;4243860;27;5608;-71
2023/09/16 11:56:08;;;;;;;;;;;;;;;25.23;57.40;96739.63;4249866;27;5577;-76
2023/09/16 11:58:12;;;;;;;;;;;;;;;25.21;57.33;96755.34;4243056;27;5583;-73
2023/09/16 12:00:16;;;;;;;;;;;;;;;25.20;57.04;96759.13;4242466;27;5517;-70
2023/09/16 12:02:19;;;;;;;;;;;;;;;25.20;57.29;96772.66;4233872;27;5835;-70
2023/09/16 12:04:22;;;;;;;;;;;;;;;25.18;57.44;96761.34;4210933;28;5843;-70
2023/09/16 12:06:26;;;;;;;;;;;;;;;25.17;56.93;96765.94;4217249;28;5655;-76
2023/09/16 12:08:29;;;;;;;;;;;;;;;25.17;56.97;96773.25;4216640;28;5641;-70
2023/09/16 12:10:32;;;;;;;;;;;;;;;25.18;57.44;96775.66;4214586;28;5780;-69
2023/09/16 12:12:34;;;;;;;;;;;;;;;25.17;57.00;96778.66;4214943;28;5692;-71
2023/09/16 12:14:39;;;;;;;;;;;;;;;25.16;57.09;96775.16;4222209;28;5717;-74
2023/09/16 12:16:42;;;;;;;;;;;;;;;25.16;57.33;96777.03;4216896;28;5725;-72
2023/09/16 12:18:45;;;;;;;;;;;;;;;25.14;56.99;96785.44;4216628;28;5705;-68
2023/09/16 12:20:47;;;;;;;;;;;;;;;25.13;57.00;96791.13;4215602;28;5737;-72
2023/09/16 12:22:53;;;;;;;;;;;;;;;25.11;57.28;96777.09;4215521;28;5720;-73
2023/09/16 12:24:56;;;;;;;;;;;;;;;25.11;57.25;96779.78;4214647;28;5672;-69
2023/09/16 12:26:59;;;;;;;;;;;;;;;25.11;57.02;96788.72;4224007;28;5841;-69
2023/09/16 12:29:04;;;;;;;;;;;;;;;25.09;57.07;96795.50;4216465;28;5649;-73
2023/09/16 12:31:10;;;;;;;;;;;;;;;25.09;57.11;96799.00;4209618;28;5656;-70
2023/09/16 12:33:14;;;;;;;;;;;;;;;25.08;56.96;96788.47;4216307;28;5709;-69
2023/09/16 12:35:17;;;;;;;;;;;;;;;25.07;57.36;96786.88;4216960;28;6681;-72
2023/09/16 12:37:24;;;;;;;;;;;;;;;25.05;57.32;96783.66;4216750;28;5630;-71
2023/09/16 12:39:27;;;;;;;;;;;;;;;25.03;57.12;96786.66;4216429;28;5806;-73
2023/09/16 12:41:30;;;;;;;;;;;;;;;25.03;57.34;96786.66;4208279;28;5663;-70
2023/09/16 12:43:33;;;;;;;;;;;;;;;25.03;57.10;96791.22;4221856;28;5634;-68
2023/09/16 12:45:37;;;;;;;;;;;;;;;25.05;57.13;96800.69;4216321;28;5653;-69
2023/09/16 12:47:42;;;;;;;;;;;;;;;25.05;57.42;96794.47;4216218;28;5627;-73
2023/09/16 12:49:45;;;;;;;;;;;;;;;25.07;57.21;96786.88;4216262;28;5638;-69
2023/09/16 12:51:48;;;;;;;;;;;;;;;25.06;57.39;96777.16;4214031;28;5933;-69
2023/09/16 12:53:53;;;;;;;;;;;;;;;25.04;57.25;96771.22;4211310;28;5826;-77
2023/09/16 12:55:56;;;;;;;;;;;;;;;25.03;57.30;96766.88;4204981;28;7723;-68
2023/09/16 12:58:00;;;;;;;;;;;;;;;25.00;57.62;96759.31;4207033;28;5750;-67
2023/09/16 13:00:03;;;;;;;;;;;;;;;25.00;57.72;96772.84;4200405;28;5709;-67
2023/09/16 13:02:06;;;;;;;;;;;;;;;24.99;57.52;96769.31;4207435;28;5752;-68
2023/09/16 13:04:11;;;;;;;;;;;;;;;25.01;57.59;96774.44;4242793;27;5633;-67
2023/09/16 13:06:14;;;;;;;;;;;;;;;25.04;57.46;96771.22;4234438;27;5501;-68
2023/09/16 13:08:19;;;;;;;;;;;;;;;25.06;57.36;96766.34;4242147;27;5589;-70
2023/09/16 13:10:23;;;;;;;;;;;;;;;25.08;57.46;96764.94;4240590;27;5669;-64
2023/09/16 13:12:30;;;;;;;;;;;;;;;25.10;57.70;96768.16;4244371;27;5670;-68
2023/09/16 13:14:33;;;;;;;;;;;;;;;25.12;57.55;96757.06;4233361;27;5585;-69
2023/09/16 13:16:35;;;;;;;;;;;;;;;25.13;57.29;96755.97;4244527;27;5666;-75
2023/09/16 13:18:39;;;;;;;;;;;;;;;25.12;57.11;96757.84;4242968;27;5727;-70
2023/09/16 13:20:44;;;;;;;;;;;;;;;25.12;57.12;96747.03;4241158;27;5572;-76
2023/09/16 13:22:47;;;;;;;;;;;;;;;25.10;57.03;96743.81;4241117;27;5725;-75
2023/09/16 13:24:50;;;;;;;;;;;;;;;25.11;57.09;96750.84;4240054;27;5721;-67
2023/09/16 13:26:55;;;;;;;;;;;;;;;25.10;56.68;96753.84;4220779;27;5757;-75
2023/09/16 13:29:01;;;;;;;;;;;;;;;25.09;56.61;96750.31;4238273;27;5577;-67
2023/09/16 13:31:04;;;;;;;;;;;;;;;25.12;56.50;96746.22;4228785;28;5510;-73
2023/09/16 13:33:09;;;;;;;;;;;;;;;25.12;56.35;96751.66;4247430;27;5740;-71
2023/09/16 13:35:12;;;;;;;;;;;;;;;25.15;56.35;96760.00;4245700;27;5700;-77
2023/09/16 13:37:17;;;;;;;;;;;;;;;25.17;56.36;96754.31;4248930;27;5843;-82
2023/09/16 13:39:20;;;;;;;;;;;;;;;25.19;56.01;96758.34;4249416;27;8392;-67
2023/09/16 13:41:23;;;;;;;;;;;;;;;25.18;56.07;96745.09;4246570;27;5543;-73
2023/09/16 13:43:26;;;;;;;;;;;;;;;25.21;56.21;96755.34;4253244;27;5573;-74
2023/09/16 13:45:30;;;;;;;;;;;;;;;25.20;56.31;96751.03;4253273;27;5499;-74
2023/09/16 13:47:32;;;;;;;;;;;;;;;25.21;56.06;96752.63;4252077;27;5490;-70
2023/09/16 13:49:35;;;;;;;;;;;;;;;25.19;55.65;96758.34;4242314;27;5813;-67
2023/09/16 13:51:38;;;;;;;;;;;;;;;25.17;55.80;96757.00;4247930;27;5602;-66
2023/09/16 13:53:42;;;;;;;;;;;;;;;25.14;56.07;96760.28;4245855;27;5079;-72
2023/09/16 13:55:46;;;;;;;;;;;;;;;25.15;55.83;96756.50;4242320;27;5600;-74
2023/09/16 13:57:49;;;;;;;;;;;;;;;25.14;55.97;96763.81;4247537;27;6991;-72
2023/09/16 13:59:52;;;;;;;;;;;;;;;25.14;55.81;96763.81;4250181;27;5071;-70
2023/09/16 14:01:55;;;;;;;;;;;;;;;25.15;56.13;96759.22;4249940;27;5513;-71
2023/09/16 14:04:01;;;;;;;;;;;;;;;25.17;55.71;96757.00;4242094;27;5641;-77
2023/09/16 14:06:05;;;;;;;;;;;;;;;25.14;55.74;96754.88;4242257;27;6386;-69
2023/09/16 14:08:09;;;;;;;;;;;;;;;25.11;56.16;96760.84;4243130;27;5522;-73
2023/09/16 14:10:15;;;;;;;;;;;;;;;25.11;55.94;96758.16;4243671;27;6508;-72
2023/09/16 14:12:17;;;;;;;;;;;;;;;25.12;56.26;96746.22;4244231;27;5558;-69
2023/09/16 14:14:21;;;;;;;;;;;;;;;25.13;56.21;96745.13;4241640;27;5653;-74
2023/09/16 14:16:22;;;;;;;;;;;;;;;25.13;56.05;96742.44;4247283;27;5840;-74
2023/09/16 14:18:26;;;;;;;;;;;;;;;25.14;56.06;96746.75;4248559;27;5744;-76
2023/09/16 14:20:29;;;;;;;;;;;;;;;25.14;55.60;96752.16;4243606;27;5758;-70
2023/09/16 14:22:32;;;;;;;;;;;;;;;25.13;55.72;96748.66;4238609;27;5610;-71
2023/09/16 14:24:36;;;;;;;;;;;;;;;25.14;55.89;96746.75;4239780;27;5851;-75
2023/09/16 14:26:40;;;;;;;;;;;;;;;25.14;55.69;96746.75;4243877;27;5565;-70
2023/09/16 14:28:43;;;;;;;;;;;;;;;25.14;55.81;96742.16;4242208;27;5570;-69
2023/09/16 14:30:45;;;;;;;;;;;;;;;25.16;55.73;96728.34;4245021;27;5506;-65
2023/09/16 14:32:48;;;;;;;;;;;;;;;25.17;55.64;96732.66;4241424;27;7734;-71
2023/09/16 14:34:50;;;;;;;;;;;;;;;25.19;55.75;96735.88;4242559;27;5565;-72
2023/09/16 14:36:53;;;;;;;;;;;;;;;25.19;55.53;96730.47;4242216;27;5625;-71
2023/09/16 14:38:56;;;;;;;;;;;;;;;25.18;55.33;96724.25;4242836;27;5713;-70
2023/09/16 14:41:04;;;;;;;;;;;;;;;25.19;55.26;96728.56;4244311;27;5676;-70
2023/09/16 14:43:08;;;;;;;;;;;;;;;25.21;55.30;96722.88;4226660;27;5613;-71
2023/09/16 14:45:11;;;;;;;;;;;;;;;25.23;55.12;96734.22;4243229;27;5621;-70
2023/09/16 14:47:13;;;;;;;;;;;;;;;25.25;55.31;96718.50;4244203;27;5494;-72
2023/09/16 14:49:16;;;;;;;;;;;;;;;25.25;55.22;96716.59;4242151;27;5185;-70
2023/09/16 14:51:19;;;;;;;;;;;;;;;25.28;54.90;96717.94;4243714;27;5599;-74
2023/09/16 14:53:23;;;;;;;;;;;;;;;25.28;54.98;96717.94;4241969;27;5845;-69
2023/09/16 14:55:26;;;;;;;;;;;;;;;25.25;54.90;96711.19;4239180;27;5467;-73
2023/09/16 14:57:29;;;;;;;;;;;;;;;25.25;54.89;96713.06;4245180;27;5617;-74
2023/09/16 14:59:33;;;;;;;;;;;;;;;25.24;55.10;96719.59;4239039;27;5645;-68
2023/09/16 15:01:35;;;;;;;;;;;;;;;25.25;54.93;96718.50;4241136;27;6012;-74
2023/09/16 15:03:38;;;;;;;;;;;;;;;25.25;54.64;96719.28;4239924;27;5574;-70
2023/09/16 15:05:41;;;;;;;;;;;;;;;25.25;54.66;96718.50;4239852;27;5719;-66
2023/09/16 15:07:44;;;;;;;;;;;;;;;25.24;54.84;96716.88;4243392;27;5091;-66
2023/09/16 15:09:47;;;;;;;;;;;;;;;25.23;54.67;96721.47;4238946;27;5833;-68
2023/09/16 15:11:50;;;;;;;;;;;;;;;25.22;54.62;96711.75;4243793;27;5629;-66
2023/09/16 15:13:52;;;;;;;;;;;;;;;25.20;54.72;96716.66;4244727;27;5494;-66
2023/09/16 15:15:57;;;;;;;;;;;;;;;25.18;54.72;96713.44;4250330;27;5732;-66
2023/09/16 15:18:00;;;;;;;;;;;;;;;25.17;54.73;96721.84;4239929;27;5712;-66
2023/09/16 15:20:04;;;;;;;;;;;;;;;25.15;54.38;96719.44;4241709;27;5732;-67
2023/09/16 15:22:07;;;;;;;;;;;;;;;25.16;54.32;96717.53;4242621;27;6521;-67
2023/09/16 15:24:11;;;;;;;;;;;;;;;25.15;54.69;96707.81;4243454;27;5832;-68
2023/09/16 15:26:14;;;;;;;;;;;;;;;25.15;54.53;96718.63;4246684;27;5819;-66
2023/09/16 15:28:17;;;;;;;;;;;;;;;25.14;54.54;96715.13;4255421;27;5569;-66
2023/09/16 15:30:20;;;;;;;;;;;;;;;25.15;54.52;96707.81;4250056;27;5573;-67
2023/09/16 15:32:25;;;;;;;;;;;;;;;25.14;54.26;96714.28;4250711;27;5569;-67
2023/09/16 15:34:47;;;;;;;;;;;;;;;25.15;54.45;96714.03;4250937;27;5511;-66
2023/09/16 15:36:50;;;;;;;;;;;;;;;25.16;54.18;96706.72;4250057;27;6188;-66
2023/09/16 15:38:53;;;;;;;;;;;;;;;25.15;54.26;96718.63;4244584;27;5649;-67
2023/09/16 15:41:00;;;;;;;;;;;;;;;25.14;54.33;96717.81;4247142;27;7497;-67
2023/09/16 15:43:03;;;;;;;;;;;;;;;25.14;54.27;96712.41;4245058;27;5531;-63
2023/09/16 15:45:07;;;;;;;;;;;;;;;25.14;54.03;96711.59;4246882;27;5932;-63
2023/09/16 15:47:10;;;;;;;;;;;;;;;25.12;53.81;96713.78;4243412;27;5777;-65
2023/09/16 15:49:14;;;;;;;;;;;;;;;25.12;54.00;96713.78;4245295;27;5829;-64
2023/09/16 15:51:17;;;;;;;;;;;;;;;25.12;54.17;96708.38;4246261;27;5574;-64
2023/09/16 15:53:19;;;;;;;;;;;;;;;25.10;54.16;96699.75;4249117;27;5589;-64
2023/09/16 15:55:22;;;;;;;;;;;;;;;25.07;54.32;96703.84;4248001;27;5720;-63
2023/09/16 15:57:25;;;;;;;;;;;;;;;25.07;53.92;96703.84;4247328;27;5641;-64